Graig Cardiff — 2FON6 — position and weather

sailwx.info

Track history (hours):
 
Tides and Currents Weather Stations Pressure Air Temp Water Temp Dewpoint Dewpoint Depression Visibility Wind Speed Wind Dir Waves Ship Positions

Graig Cardiff

Last reported at 2017-Nov-17 00:02 UTC. Time now 2017-Nov-23 11:03 UTC.
Position N 36°19' E 014°45'.

Length 180 m; draft 10 m.

Type: Cargo ship. MMSI: 235093065.

Date/timePositionNaut miles runAvg speedWind from/ knotsBaromVisibWave heightAir tempDewpointWater temp
2017-Nov-17 00:02N 36°19' E 014°45'113.4
2017-Nov-16 23:59N 36°19' E 014°44'613.4
2017-Nov-16 23:30N 36°21' E 014°36'713.3
2017-Nov-16 23:00N 36°23' E 014°29'713.1
2017-Nov-16 22:30N 36°25' E 014°21'1013.1
2017-Nov-16 21:45N 36°28' E 014°09'  
2017-Nov-12 18:56N 36°25' W 008°35'2712.4
2017-Nov-12 16:47N 36°33' W 009°07'512.1
2017-Nov-12 16:23N 36°33' W 009°13'2212.2
2017-Nov-12 14:34N 36°49' W 009°33'112.8
2017-Nov-12 14:30N 36°50' W 009°33'4412.8
2017-Nov-12 11:04N 37°32' W 009°45'113.6
2017-Nov-12 11:00N 37°33' W 009°46'3013.0
2017-Nov-12 08:41N 38°03' W 009°55'412.7
2017-Nov-12 08:22N 38°07' W 009°56'512.9
2017-Nov-12 07:57N 38°12' W 009°57'1012.8
2017-Nov-12 07:09N 38°22' W 010°00'313.1
2017-Nov-12 06:57N 38°25' W 010°01'713.1
2017-Nov-12 06:26N 38°31' W 010°03'612.8
2017-Nov-12 05:58N 38°37' W 010°05'712.6
2017-Nov-12 05:26N 38°43' W 010°07'612.9
2017-Nov-12 05:00N 38°49' W 010°07'612.8
2017-Nov-12 04:30N 38°55' W 010°07'612.6
2017-Nov-12 04:00N 39°02' W 010°06'612.9
2017-Nov-12 03:30N 39°08' W 010°06'713.0
2017-Nov-12 02:59N 39°15' W 010°06'712.8
2017-Nov-12 02:26N 39°22' W 010°06'55312.2
2017-Nov-10 05:00N 48°10' W 006°21'7511.9
2017-Nov-09 22:43N 49°09' W 005°10'411.4
2017-Nov-09 22:23N 49°11' W 005°05'711.1
2017-Nov-09 21:47N 49°14' W 004°56'411.0
2017-Nov-09 21:27N 49°16' W 004°52'1710.8
2017-Nov-09 19:54N 49°25' W 004°29'3912.2
2017-Nov-09 16:40N 49°44' W 003°37'313.4
2017-Nov-09 16:25N 49°46' W 003°32'613.4
2017-Nov-09 16:00N 49°49' W 003°25'713.4
2017-Nov-09 15:30N 49°52' W 003°16'713.1
2017-Nov-09 14:56N 49°56' W 003°06'512.6
2017-Nov-09 14:30N 49°59' W 002°59'912.1
2017-Nov-09 13:43N 50°01' W 002°44'32 9.9
2017-Nov-09 10:30N 50°10' W 001°56'8 9.6
2017-Nov-09 09:39N 50°12' W 001°44'110.1
2017-Nov-09 09:30N 50°13' W 001°42'710.7
2017-Nov-09 08:50N 50°14' W 001°31'411.8
2017-Nov-09 08:30N 50°16' W 001°25'4014.0
2017-Nov-09 05:38N 50°27' W 000°25'214.3
2017-Nov-09 05:30N 50°27' W 000°22'714.1
2017-Nov-09 05:00N 50°29' W 000°11'713.7
2017-Nov-09 04:30N 50°31' W 000°01'713.4
2017-Nov-09 04:00N 50°32' E 000°09'713.2
2017-Nov-09 03:30N 50°34' E 000°19'712.8
2017-Nov-09 02:56N 50°36' E 000°31'612.2
2017-Nov-09 02:28N 50°38' E 000°38'612.2
2017-Nov-09 02:00N 50°42' E 000°45'612.1
2017-Nov-09 01:30N 50°46' E 000°53'1512.2
2017-Nov-09 00:16N 50°56' E 001°11'313.3
2017-Nov-09 00:00N 50°58' E 001°15'714.6
2017-Nov-08 23:30N 51°03' E 001°24'815.9
2017-Nov-08 23:00N 51°08' E 001°34'815.9
2017-Nov-08 22:30N 51°13' E 001°43'815.3
2017-Nov-08 22:00N 51°19' E 001°49'714.6
2017-Nov-08 21:30N 51°26' E 001°53'713.5
2017-Nov-08 21:01N 51°33' E 001°50'612.6
2017-Nov-08 20:31N 51°39' E 001°46'612.6
2017-Nov-08 20:00N 51°45' E 001°44'611.8
2017-Nov-08 19:30N 51°50' E 001°41'4 7.6
2017-Nov-08 19:00N 51°50' E 001°35'612.5
2017-Nov-08 18:30N 51°45' E 001°31'713.3
2017-Nov-08 18:00N 51°39' E 001°24'813.8
2017-Nov-08 17:24N 51°34' E 001°14'513.8
2017-Nov-08 17:00N 51°32' E 001°06'712.9
2017-Nov-08 16:27N 51°29' E 000°55'  
Track history (hours):
 
Tides and Currents Weather Stations Pressure Air Temp Water Temp Dewpoint Dewpoint Depression Visibility Wind Speed Wind Dir Waves Ship Positions

Graig Cardiff

Last reported at 2017-Nov-17 00:02 UTC. Time now 2017-Nov-23 11:03 UTC.
Position N 36°19' E 014°45'.

Length 180 m; draft 10 m.

Type: Cargo ship. MMSI: 235093065.

Date/timePositionNaut miles runAvg speedWind from/ knotsBaromVisibWave heightAir tempDewpointWater temp
2017-Nov-17 00:02N 36°19' E 014°45'113.4
2017-Nov-16 23:59N 36°19' E 014°44'613.4
2017-Nov-16 23:30N 36°21' E 014°36'713.3
2017-Nov-16 23:00N 36°23' E 014°29'713.1
2017-Nov-16 22:30N 36°25' E 014°21'1013.1
2017-Nov-16 21:45N 36°28' E 014°09'  
2017-Nov-12 18:56N 36°25' W 008°35'2712.4
2017-Nov-12 16:47N 36°33' W 009°07'512.1
2017-Nov-12 16:23N 36°33' W 009°13'2212.2
2017-Nov-12 14:34N 36°49' W 009°33'112.8
2017-Nov-12 14:30N 36°50' W 009°33'4412.8
2017-Nov-12 11:04N 37°32' W 009°45'113.6
2017-Nov-12 11:00N 37°33' W 009°46'3013.0
2017-Nov-12 08:41N 38°03' W 009°55'412.7
2017-Nov-12 08:22N 38°07' W 009°56'512.9
2017-Nov-12 07:57N 38°12' W 009°57'1012.8
2017-Nov-12 07:09N 38°22' W 010°00'313.1
2017-Nov-12 06:57N 38°25' W 010°01'713.1
2017-Nov-12 06:26N 38°31' W 010°03'612.8
2017-Nov-12 05:58N 38°37' W 010°05'712.6
2017-Nov-12 05:26N 38°43' W 010°07'612.9
2017-Nov-12 05:00N 38°49' W 010°07'612.8
2017-Nov-12 04:30N 38°55' W 010°07'612.6
2017-Nov-12 04:00N 39°02' W 010°06'612.9
2017-Nov-12 03:30N 39°08' W 010°06'713.0
2017-Nov-12 02:59N 39°15' W 010°06'712.8
2017-Nov-12 02:26N 39°22' W 010°06'55312.2
2017-Nov-10 05:00N 48°10' W 006°21'7511.9
2017-Nov-09 22:43N 49°09' W 005°10'411.4
2017-Nov-09 22:23N 49°11' W 005°05'711.1
2017-Nov-09 21:47N 49°14' W 004°56'411.0
2017-Nov-09 21:27N 49°16' W 004°52'1710.8
2017-Nov-09 19:54N 49°25' W 004°29'3912.2
2017-Nov-09 16:40N 49°44' W 003°37'313.4
2017-Nov-09 16:25N 49°46' W 003°32'613.4
2017-Nov-09 16:00N 49°49' W 003°25'713.4
2017-Nov-09 15:30N 49°52' W 003°16'713.1
2017-Nov-09 14:56N 49°56' W 003°06'512.6
2017-Nov-09 14:30N 49°59' W 002°59'912.1
2017-Nov-09 13:43N 50°01' W 002°44'32 9.9
2017-Nov-09 10:30N 50°10' W 001°56'8 9.6
2017-Nov-09 09:39N 50°12' W 001°44'110.1
2017-Nov-09 09:30N 50°13' W 001°42'710.7
2017-Nov-09 08:50N 50°14' W 001°31'411.8
2017-Nov-09 08:30N 50°16' W 001°25'4014.0
2017-Nov-09 05:38N 50°27' W 000°25'214.3
2017-Nov-09 05:30N 50°27' W 000°22'714.1
2017-Nov-09 05:00N 50°29' W 000°11'713.7
2017-Nov-09 04:30N 50°31' W 000°01'713.4
2017-Nov-09 04:00N 50°32' E 000°09'713.2
2017-Nov-09 03:30N 50°34' E 000°19'712.8
2017-Nov-09 02:56N 50°36' E 000°31'612.2
2017-Nov-09 02:28N 50°38' E 000°38'612.2
2017-Nov-09 02:00N 50°42' E 000°45'612.1
2017-Nov-09 01:30N 50°46' E 000°53'1512.2
2017-Nov-09 00:16N 50°56' E 001°11'313.3
2017-Nov-09 00:00N 50°58' E 001°15'714.6
2017-Nov-08 23:30N 51°03' E 001°24'815.9
2017-Nov-08 23:00N 51°08' E 001°34'815.9
2017-Nov-08 22:30N 51°13' E 001°43'815.3
2017-Nov-08 22:00N 51°19' E 001°49'714.6
2017-Nov-08 21:30N 51°26' E 001°53'713.5
2017-Nov-08 21:01N 51°33' E 001°50'612.6
2017-Nov-08 20:31N 51°39' E 001°46'612.6
2017-Nov-08 20:00N 51°45' E 001°44'611.8
2017-Nov-08 19:30N 51°50' E 001°41'4 7.6
2017-Nov-08 19:00N 51°50' E 001°35'612.5
2017-Nov-08 18:30N 51°45' E 001°31'713.3
2017-Nov-08 18:00N 51°39' E 001°24'813.8
2017-Nov-08 17:24N 51°34' E 001°14'513.8
2017-Nov-08 17:00N 51°32' E 001°06'712.9
2017-Nov-08 16:27N 51°29' E 000°55'  

Dump ship's entire track history